sensor_id;sensor_type;location;lat;lon;timestamp;temperature;humidity
16066;DHT22;8137;48.952;8.970;2023-11-21T00:00:37;8.00;99.90
16066;DHT22;8137;48.952;8.970;2023-11-21T00:03:03;8.00;99.90
16066;DHT22;8137;48.952;8.970;2023-11-21T00:05:29;7.90;99.90
16066;DHT22;8137;48.952;8.970;2023-11-21T00:07:55;7.90;99.90
16066;DHT22;8137;48.952;8.970;2023-11-21T00:10:20;7.80;99.90
16066;DHT22;8137;48.952;8.970;2023-11-21T00:12:46;7.80;99.90
16066;DHT22;8137;48.952;8.970;2023-11-21T00:15:13;7.80;99.90
16066;DHT22;8137;48.952;8.970;2023-11-21T00:17:39;7.80;99.90
16066;DHT22;8137;48.952;8.970;2023-11-21T00:20:06;7.80;99.90
16066;DHT22;8137;48.952;8.970;2023-11-21T00:22:35;7.80;99.90
16066;DHT22;8137;48.952;8.970;2023-11-21T00:25:01;7.90;99.90
16066;DHT22;8137;48.952;8.970;2023-11-21T00:27:29;7.90;99.90
16066;DHT22;8137;48.952;8.970;2023-11-21T00:29:55;7.90;99.90
16066;DHT22;8137;48.952;8.970;2023-11-21T00:32:20;7.90;99.90
16066;DHT22;8137;48.952;8.970;2023-11-21T00:34:46;7.80;99.90
16066;DHT22;8137;48.952;8.970;2023-11-21T00:37:12;7.90;99.90
16066;DHT22;8137;48.952;8.970;2023-11-21T00:39:37;7.80;99.90
16066;DHT22;8137;48.952;8.970;2023-11-21T00:42:03;7.80;99.90
16066;DHT22;8137;48.952;8.970;2023-11-21T00:44:30;7.80;99.90
16066;DHT22;8137;48.952;8.970;2023-11-21T00:46:55;7.90;99.90
16066;DHT22;8137;48.952;8.970;2023-11-21T00:49:21;7.90;99.90
16066;DHT22;8137;48.952;8.970;2023-11-21T00:51:47;7.90;99.90
16066;DHT22;8137;48.952;8.970;2023-11-21T00:54:12;7.90;99.90
16066;DHT22;8137;48.952;8.970;2023-11-21T00:56:38;7.90;99.90
16066;DHT22;8137;48.952;8.970;2023-11-21T00:59:05;7.90;99.90
16066;DHT22;8137;48.952;8.970;2023-11-21T01:01:30;7.90;99.90
16066;DHT22;8137;48.952;8.970;2023-11-21T01:03:56;7.90;99.90
16066;DHT22;8137;48.952;8.970;2023-11-21T01:06:22;7.90;99.90
16066;DHT22;8137;48.952;8.970;2023-11-21T01:08:47;7.90;99.90
16066;DHT22;8137;48.952;8.970;2023-11-21T01:11:13;8.00;99.90
16066;DHT22;8137;48.952;8.970;2023-11-21T01:13:39;8.00;99.90
16066;DHT22;8137;48.952;8.970;2023-11-21T01:16:06;7.90;99.90
16066;DHT22;8137;48.952;8.970;2023-11-21T01:18:32;7.90;99.90
16066;DHT22;8137;48.952;8.970;2023-11-21T01:20:57;7.90;99.90
16066;DHT22;8137;48.952;8.970;2023-11-21T01:23:23;7.90;99.90
16066;DHT22;8137;48.952;8.970;2023-11-21T01:25:49;7.90;99.90
16066;DHT22;8137;48.952;8.970;2023-11-21T01:28:14;8.00;99.90
16066;DHT22;8137;48.952;8.970;2023-11-21T01:30:40;8.00;99.90
16066;DHT22;8137;48.952;8.970;2023-11-21T01:33:06;8.00;99.90
16066;DHT22;8137;48.952;8.970;2023-11-21T01:35:31;8.00;99.90
16066;DHT22;8137;48.952;8.970;2023-11-21T01:37:57;8.00;99.90
16066;DHT22;8137;48.952;8.970;2023-11-21T01:40:22;7.90;99.90
16066;DHT22;8137;48.952;8.970;2023-11-21T01:42:49;7.90;99.90
16066;DHT22;8137;48.952;8.970;2023-11-21T01:45:15;7.90;99.90
16066;DHT22;8137;48.952;8.970;2023-11-21T01:47:41;7.90;99.90
16066;DHT22;8137;48.952;8.970;2023-11-21T01:50:08;7.90;99.90
16066;DHT22;8137;48.952;8.970;2023-11-21T01:52:35;7.90;99.90
16066;DHT22;8137;48.952;8.970;2023-11-21T01:55:02;8.00;99.90
16066;DHT22;8137;48.952;8.970;2023-11-21T01:57:28;8.00;99.90
16066;DHT22;8137;48.952;8.970;2023-11-21T01:59:55;8.10;99.90
16066;DHT22;8137;48.952;8.970;2023-11-21T02:02:21;8.10;99.90
16066;DHT22;8137;48.952;8.970;2023-11-21T02:04:47;8.10;99.90
16066;DHT22;8137;48.952;8.970;2023-11-21T02:07:12;8.10;99.90
16066;DHT22;8137;48.952;8.970;2023-11-21T02:09:38;8.10;99.90
16066;DHT22;8137;48.952;8.970;2023-11-21T02:12:04;8.10;99.90
16066;DHT22;8137;48.952;8.970;2023-11-21T02:14:30;8.10;99.90
16066;DHT22;8137;48.952;8.970;2023-11-21T02:16:57;8.10;99.90
16066;DHT22;8137;48.952;8.970;2023-11-21T02:19:23;8.20;99.90
16066;DHT22;8137;48.952;8.970;2023-11-21T02:21:51;8.10;99.90
16066;DHT22;8137;48.952;8.970;2023-11-21T02:24:23;8.10;99.90
16066;DHT22;8137;48.952;8.970;2023-11-21T02:26:49;8.10;99.90
16066;DHT22;8137;48.952;8.970;2023-11-21T02:29:17;8.10;99.90
16066;DHT22;8137;48.952;8.970;2023-11-21T02:31:44;8.10;99.90
16066;DHT22;8137;48.952;8.970;2023-11-21T02:34:17;8.10;99.90
16066;DHT22;8137;48.952;8.970;2023-11-21T02:36:44;8.10;99.90
16066;DHT22;8137;48.952;8.970;2023-11-21T02:39:13;8.20;99.90
16066;DHT22;8137;48.952;8.970;2023-11-21T02:41:38;8.10;99.90
16066;DHT22;8137;48.952;8.970;2023-11-21T02:44:05;8.10;99.90
16066;DHT22;8137;48.952;8.970;2023-11-21T02:46:32;8.10;99.90
16066;DHT22;8137;48.952;8.970;2023-11-21T02:49:02;8.10;99.90
16066;DHT22;8137;48.952;8.970;2023-11-21T02:51:28;8.20;99.90
16066;DHT22;8137;48.952;8.970;2023-11-21T02:53:54;8.20;99.90
16066;DHT22;8137;48.952;8.970;2023-11-21T02:56:20;8.20;99.90
16066;DHT22;8137;48.952;8.970;2023-11-21T02:58:45;8.20;99.90
16066;DHT22;8137;48.952;8.970;2023-11-21T03:01:11;8.10;99.90
16066;DHT22;8137;48.952;8.970;2023-11-21T03:03:39;8.10;99.90
16066;DHT22;8137;48.952;8.970;2023-11-21T03:06:08;8.20;99.90
16066;DHT22;8137;48.952;8.970;2023-11-21T03:08:34;8.20;99.90
16066;DHT22;8137;48.952;8.970;2023-11-21T03:11:00;8.20;99.90
16066;DHT22;8137;48.952;8.970;2023-11-21T03:13:25;8.20;99.90
16066;DHT22;8137;48.952;8.970;2023-11-21T03:15:51;8.10;99.90
16066;DHT22;8137;48.952;8.970;2023-11-21T03:18:17;8.10;99.90
16066;DHT22;8137;48.952;8.970;2023-11-21T03:20:43;8.10;99.90
16066;DHT22;8137;48.952;8.970;2023-11-21T03:23:11;8.00;99.90
16066;DHT22;8137;48.952;8.970;2023-11-21T03:25:37;8.00;99.90
16066;DHT22;8137;48.952;8.970;2023-11-21T03:28:03;7.90;99.90
16066;DHT22;8137;48.952;8.970;2023-11-21T03:30:28;7.90;99.90
16066;DHT22;8137;48.952;8.970;2023-11-21T03:32:54;7.90;99.90
16066;DHT22;8137;48.952;8.970;2023-11-21T03:35:20;8.00;99.90
16066;DHT22;8137;48.952;8.970;2023-11-21T03:37:46;8.00;99.90
16066;DHT22;8137;48.952;8.970;2023-11-21T03:40:12;8.00;99.90
16066;DHT22;8137;48.952;8.970;2023-11-21T03:42:38;8.00;99.90
16066;DHT22;8137;48.952;8.970;2023-11-21T03:45:05;8.00;99.90
16066;DHT22;8137;48.952;8.970;2023-11-21T03:47:31;8.00;99.90
16066;DHT22;8137;48.952;8.970;2023-11-21T03:49:57;8.10;99.90
16066;DHT22;8137;48.952;8.970;2023-11-21T03:52:22;8.10;99.90
16066;DHT22;8137;48.952;8.970;2023-11-21T03:54:48;8.00;99.90
16066;DHT22;8137;48.952;8.970;2023-11-21T03:57:14;8.00;99.90
16066;DHT22;8137;48.952;8.970;2023-11-21T03:59:43;8.00;99.90
16066;DHT22;8137;48.952;8.970;2023-11-21T04:02:09;8.00;99.90
16066;DHT22;8137;48.952;8.970;2023-11-21T04:04:35;8.00;99.90
16066;DHT22;8137;48.952;8.970;2023-11-21T04:07:01;8.00;99.90
16066;DHT22;8137;48.952;8.970;2023-11-21T04:09:27;8.00;99.90
16066;DHT22;8137;48.952;8.970;2023-11-21T04:11:53;8.10;99.90
16066;DHT22;8137;48.952;8.970;2023-11-21T04:14:19;8.00;99.90
16066;DHT22;8137;48.952;8.970;2023-11-21T04:16:45;8.00;99.90
16066;DHT22;8137;48.952;8.970;2023-11-21T04:19:11;8.10;99.90
16066;DHT22;8137;48.952;8.970;2023-11-21T04:21:37;8.10;99.90
16066;DHT22;8137;48.952;8.970;2023-11-21T04:24:03;8.10;99.90
16066;DHT22;8137;48.952;8.970;2023-11-21T04:26:28;8.10;99.90
16066;DHT22;8137;48.952;8.970;2023-11-21T04:28:54;8.10;99.90
16066;DHT22;8137;48.952;8.970;2023-11-21T04:31:19;8.10;99.90
16066;DHT22;8137;48.952;8.970;2023-11-21T04:33:45;8.10;99.90
16066;DHT22;8137;48.952;8.970;2023-11-21T04:36:11;8.10;99.90
16066;DHT22;8137;48.952;8.970;2023-11-21T04:38:36;8.10;99.90
16066;DHT22;8137;48.952;8.970;2023-11-21T04:41:02;8.10;99.90
16066;DHT22;8137;48.952;8.970;2023-11-21T04:43:27;8.10;99.90
16066;DHT22;8137;48.952;8.970;2023-11-21T04:45:54;8.10;99.90
16066;DHT22;8137;48.952;8.970;2023-11-21T04:48:20;8.10;99.90
16066;DHT22;8137;48.952;8.970;2023-11-21T04:50:45;8.10;99.90
16066;DHT22;8137;48.952;8.970;2023-11-21T04:53:11;8.10;99.90
16066;DHT22;8137;48.952;8.970;2023-11-21T04:55:42;8.10;99.90
16066;DHT22;8137;48.952;8.970;2023-11-21T04:58:08;8.10;99.90
16066;DHT22;8137;48.952;8.970;2023-11-21T05:00:36;8.00;99.90
16066;DHT22;8137;48.952;8.970;2023-11-21T05:03:02;8.00;99.90
16066;DHT22;8137;48.952;8.970;2023-11-21T05:05:29;8.00;99.90
16066;DHT22;8137;48.952;8.970;2023-11-21T05:07:57;8.00;99.90
16066;DHT22;8137;48.952;8.970;2023-11-21T05:10:23;8.00;99.90
16066;DHT22;8137;48.952;8.970;2023-11-21T05:12:49;8.00;99.90
16066;DHT22;8137;48.952;8.970;2023-11-21T05:15:16;7.90;99.90
16066;DHT22;8137;48.952;8.970;2023-11-21T05:17:45;7.90;99.90
16066;DHT22;8137;48.952;8.970;2023-11-21T05:20:12;7.90;99.90
16066;DHT22;8137;48.952;8.970;2023-11-21T05:22:39;7.90;99.90
16066;DHT22;8137;48.952;8.970;2023-11-21T05:25:06;7.90;99.90
16066;DHT22;8137;48.952;8.970;2023-11-21T05:27:33;8.00;99.90
16066;DHT22;8137;48.952;8.970;2023-11-21T05:30:03;7.90;99.90
16066;DHT22;8137;48.952;8.970;2023-11-21T05:32:32;7.90;99.90
16066;DHT22;8137;48.952;8.970;2023-11-21T05:34:58;7.90;99.90
16066;DHT22;8137;48.952;8.970;2023-11-21T05:37:24;8.00;99.90
16066;DHT22;8137;48.952;8.970;2023-11-21T05:39:55;7.90;99.90
16066;DHT22;8137;48.952;8.970;2023-11-21T05:42:22;7.90;99.90
16066;DHT22;8137;48.952;8.970;2023-11-21T05:44:48;7.90;99.90
16066;DHT22;8137;48.952;8.970;2023-11-21T05:47:14;7.90;99.90
16066;DHT22;8137;48.952;8.970;2023-11-21T05:49:40;7.90;99.90
16066;DHT22;8137;48.952;8.970;2023-11-21T05:52:05;7.80;99.90
16066;DHT22;8137;48.952;8.970;2023-11-21T05:54:32;7.90;99.90
16066;DHT22;8137;48.952;8.970;2023-11-21T05:56:57;7.90;99.90
16066;DHT22;8137;48.952;8.970;2023-11-21T05:59:23;7.90;99.90
16066;DHT22;8137;48.952;8.970;2023-11-21T06:01:49;7.90;99.90
16066;DHT22;8137;48.952;8.970;2023-11-21T06:04:15;7.90;99.90
16066;DHT22;8137;48.952;8.970;2023-11-21T06:06:40;7.90;99.90
16066;DHT22;8137;48.952;8.970;2023-11-21T06:09:06;7.80;99.90
16066;DHT22;8137;48.952;8.970;2023-11-21T06:11:34;7.80;99.90
16066;DHT22;8137;48.952;8.970;2023-11-21T06:14:00;7.80;99.90
16066;DHT22;8137;48.952;8.970;2023-11-21T06:16:25;7.80;99.90
16066;DHT22;8137;48.952;8.970;2023-11-21T06:18:51;7.80;99.90
16066;DHT22;8137;48.952;8.970;2023-11-21T06:21:16;7.80;99.90
16066;DHT22;8137;48.952;8.970;2023-11-21T06:23:43;7.80;99.90
16066;DHT22;8137;48.952;8.970;2023-11-21T06:26:08;7.80;99.90
16066;DHT22;8137;48.952;8.970;2023-11-21T06:28:35;7.90;99.90
16066;DHT22;8137;48.952;8.970;2023-11-21T06:31:01;8.20;99.90
16066;DHT22;8137;48.952;8.970;2023-11-21T06:33:33;8.30;99.90
16066;DHT22;8137;48.952;8.970;2023-11-21T06:35:59;8.30;99.90
16066;DHT22;8137;48.952;8.970;2023-11-21T06:38:28;8.30;99.90
16066;DHT22;8137;48.952;8.970;2023-11-21T06:40:56;8.10;99.90
16066;DHT22;8137;48.952;8.970;2023-11-21T06:43:22;8.00;99.90
16066;DHT22;8137;48.952;8.970;2023-11-21T06:45:48;7.80;99.90
16066;DHT22;8137;48.952;8.970;2023-11-21T06:48:13;7.70;99.90
16066;DHT22;8137;48.952;8.970;2023-11-21T06:50:39;7.70;99.90
16066;DHT22;8137;48.952;8.970;2023-11-21T06:53:04;7.70;99.90
16066;DHT22;8137;48.952;8.970;2023-11-21T06:55:32;7.70;99.90
16066;DHT22;8137;48.952;8.970;2023-11-21T06:57:58;7.70;99.90
16066;DHT22;8137;48.952;8.970;2023-11-21T07:00:25;7.80;99.90
16066;DHT22;8137;48.952;8.970;2023-11-21T07:02:53;7.80;99.90
16066;DHT22;8137;48.952;8.970;2023-11-21T07:05:21;7.80;99.90
16066;DHT22;8137;48.952;8.970;2023-11-21T07:07:47;7.80;99.90
16066;DHT22;8137;48.952;8.970;2023-11-21T07:10:13;7.80;99.90
16066;DHT22;8137;48.952;8.970;2023-11-21T07:12:39;7.90;99.90
16066;DHT22;8137;48.952;8.970;2023-11-21T07:15:06;7.90;99.90
16066;DHT22;8137;48.952;8.970;2023-11-21T07:17:35;7.90;99.90
16066;DHT22;8137;48.952;8.970;2023-11-21T07:20:01;8.00;99.90
16066;DHT22;8137;48.952;8.970;2023-11-21T07:22:27;8.00;99.90
16066;DHT22;8137;48.952;8.970;2023-11-21T07:24:52;8.00;99.90
16066;DHT22;8137;48.952;8.970;2023-11-21T07:27:18;8.00;99.90
16066;DHT22;8137;48.952;8.970;2023-11-21T07:29:44;8.00;99.90
16066;DHT22;8137;48.952;8.970;2023-11-21T07:32:10;8.10;99.90
16066;DHT22;8137;48.952;8.970;2023-11-21T07:34:36;8.10;99.90
16066;DHT22;8137;48.952;8.970;2023-11-21T07:37:02;8.20;99.90
16066;DHT22;8137;48.952;8.970;2023-11-21T07:39:28;8.10;99.90
16066;DHT22;8137;48.952;8.970;2023-11-21T07:41:54;8.10;99.90
16066;DHT22;8137;48.952;8.970;2023-11-21T07:44:20;8.10;99.90
16066;DHT22;8137;48.952;8.970;2023-11-21T07:46:46;8.20;99.90
16066;DHT22;8137;48.952;8.970;2023-11-21T07:49:12;8.20;99.90
16066;DHT22;8137;48.952;8.970;2023-11-21T07:51:42;8.20;99.90
16066;DHT22;8137;48.952;8.970;2023-11-21T07:54:07;8.20;99.90
16066;DHT22;8137;48.952;8.970;2023-11-21T07:56:33;8.20;99.90
16066;DHT22;8137;48.952;8.970;2023-11-21T07:58:58;8.20;99.90
16066;DHT22;8137;48.952;8.970;2023-11-21T08:01:24;8.30;99.90
16066;DHT22;8137;48.952;8.970;2023-11-21T08:03:50;8.30;99.90
16066;DHT22;8137;48.952;8.970;2023-11-21T08:06:17;8.30;99.90
16066;DHT22;8137;48.952;8.970;2023-11-21T08:08:43;8.30;99.90
16066;DHT22;8137;48.952;8.970;2023-11-21T08:11:09;8.30;99.90
16066;DHT22;8137;48.952;8.970;2023-11-21T08:13:35;8.40;99.90
16066;DHT22;8137;48.952;8.970;2023-11-21T08:16:01;8.40;99.90
16066;DHT22;8137;48.952;8.970;2023-11-21T08:18:30;8.40;99.90
16066;DHT22;8137;48.952;8.970;2023-11-21T08:20:56;8.50;99.90
16066;DHT22;8137;48.952;8.970;2023-11-21T08:23:22;8.50;99.90
16066;DHT22;8137;48.952;8.970;2023-11-21T08:25:52;8.50;99.90
16066;DHT22;8137;48.952;8.970;2023-11-21T08:28:18;8.50;99.90
16066;DHT22;8137;48.952;8.970;2023-11-21T08:30:43;8.50;99.90
16066;DHT22;8137;48.952;8.970;2023-11-21T08:33:09;8.60;99.90
16066;DHT22;8137;48.952;8.970;2023-11-21T08:35:35;8.60;99.90
16066;DHT22;8137;48.952;8.970;2023-11-21T08:38:02;8.60;99.90
16066;DHT22;8137;48.952;8.970;2023-11-21T08:40:28;8.60;99.90
16066;DHT22;8137;48.952;8.970;2023-11-21T08:42:54;8.60;99.90
16066;DHT22;8137;48.952;8.970;2023-11-21T08:45:23;8.60;99.90
16066;DHT22;8137;48.952;8.970;2023-11-21T08:47:48;8.70;99.90
16066;DHT22;8137;48.952;8.970;2023-11-21T08:50:14;8.70;99.90
16066;DHT22;8137;48.952;8.970;2023-11-21T08:52:40;8.70;99.90
16066;DHT22;8137;48.952;8.970;2023-11-21T08:55:07;8.80;99.90
16066;DHT22;8137;48.952;8.970;2023-11-21T08:57:36;8.80;99.90
16066;DHT22;8137;48.952;8.970;2023-11-21T09:00:06;8.90;99.90
16066;DHT22;8137;48.952;8.970;2023-11-21T09:02:37;8.90;99.90
16066;DHT22;8137;48.952;8.970;2023-11-21T09:05:07;8.90;99.90
16066;DHT22;8137;48.952;8.970;2023-11-21T09:07:34;8.90;99.90
16066;DHT22;8137;48.952;8.970;2023-11-21T09:09:59;8.90;99.90
16066;DHT22;8137;48.952;8.970;2023-11-21T09:12:25;8.90;99.90
16066;DHT22;8137;48.952;8.970;2023-11-21T09:14:51;9.00;99.90
16066;DHT22;8137;48.952;8.970;2023-11-21T09:17:17;9.10;99.90
16066;DHT22;8137;48.952;8.970;2023-11-21T09:19:42;9.10;99.90
16066;DHT22;8137;48.952;8.970;2023-11-21T09:22:16;9.30;99.90
16066;DHT22;8137;48.952;8.970;2023-11-21T09:24:41;9.30;99.90
16066;DHT22;8137;48.952;8.970;2023-11-21T09:27:07;9.50;99.90
16066;DHT22;8137;48.952;8.970;2023-11-21T09:29:33;9.60;99.90
16066;DHT22;8137;48.952;8.970;2023-11-21T09:31:59;9.70;99.90
16066;DHT22;8137;48.952;8.970;2023-11-21T09:34:25;9.90;99.90
16066;DHT22;8137;48.952;8.970;2023-11-21T09:36:51;10.00;99.90
16066;DHT22;8137;48.952;8.970;2023-11-21T09:39:17;10.10;99.90
16066;DHT22;8137;48.952;8.970;2023-11-21T09:41:54;10.20;99.90
16066;DHT22;8137;48.952;8.970;2023-11-21T09:44:35;10.20;99.90
16066;DHT22;8137;48.952;8.970;2023-11-21T09:47:02;10.00;99.90
16066;DHT22;8137;48.952;8.970;2023-11-21T09:49:28;10.00;99.90
16066;DHT22;8137;48.952;8.970;2023-11-21T09:51:55;9.90;99.90
16066;DHT22;8137;48.952;8.970;2023-11-21T09:54:22;9.90;99.90
16066;DHT22;8137;48.952;8.970;2023-11-21T09:56:49;10.00;99.90
16066;DHT22;8137;48.952;8.970;2023-11-21T09:59:15;10.10;99.90
16066;DHT22;8137;48.952;8.970;2023-11-21T10:01:42;10.00;99.90
16066;DHT22;8137;48.952;8.970;2023-11-21T10:04:11;10.10;99.90
16066;DHT22;8137;48.952;8.970;2023-11-21T10:06:40;10.30;99.90
16066;DHT22;8137;48.952;8.970;2023-11-21T10:09:12;10.30;99.90
16066;DHT22;8137;48.952;8.970;2023-11-21T10:11:42;10.40;99.90
16066;DHT22;8137;48.952;8.970;2023-11-21T10:14:11;10.40;99.90
16066;DHT22;8137;48.952;8.970;2023-11-21T10:16:41;10.50;99.90
16066;DHT22;8137;48.952;8.970;2023-11-21T10:19:10;10.50;99.90
16066;DHT22;8137;48.952;8.970;2023-11-21T10:21:37;10.50;99.90
16066;DHT22;8137;48.952;8.970;2023-11-21T10:24:03;10.50;99.90
16066;DHT22;8137;48.952;8.970;2023-11-21T10:26:29;10.50;99.90
16066;DHT22;8137;48.952;8.970;2023-11-21T10:29:01;10.50;99.90
16066;DHT22;8137;48.952;8.970;2023-11-21T10:31:32;10.50;99.90
16066;DHT22;8137;48.952;8.970;2023-11-21T10:34:20;10.50;99.90
16066;DHT22;8137;48.952;8.970;2023-11-21T10:36:46;10.30;99.90
16066;DHT22;8137;48.952;8.970;2023-11-21T10:39:19;10.20;99.90
16066;DHT22;8137;48.952;8.970;2023-11-21T10:41:46;10.00;99.90
16066;DHT22;8137;48.952;8.970;2023-11-21T10:44:18;10.00;99.90
16066;DHT22;8137;48.952;8.970;2023-11-21T10:46:50;10.00;99.90
16066;DHT22;8137;48.952;8.970;2023-11-21T10:49:20;10.10;99.90
16066;DHT22;8137;48.952;8.970;2023-11-21T10:51:45;10.10;99.90
16066;DHT22;8137;48.952;8.970;2023-11-21T10:54:11;10.20;99.90
16066;DHT22;8137;48.952;8.970;2023-11-21T10:56:39;10.30;99.90
16066;DHT22;8137;48.952;8.970;2023-11-21T10:59:10;10.40;99.90
16066;DHT22;8137;48.952;8.970;2023-11-21T11:01:42;10.60;99.90
16066;DHT22;8137;48.952;8.970;2023-11-21T11:04:09;10.60;99.90
16066;DHT22;8137;48.952;8.970;2023-11-21T11:06:41;10.60;99.90
16066;DHT22;8137;48.952;8.970;2023-11-21T11:09:08;10.60;99.90
16066;DHT22;8137;48.952;8.970;2023-11-21T11:11:39;10.70;99.90
16066;DHT22;8137;48.952;8.970;2023-11-21T11:14:08;10.80;99.90
16066;DHT22;8137;48.952;8.970;2023-11-21T11:16:36;10.80;99.90
16066;DHT22;8137;48.952;8.970;2023-11-21T11:19:02;10.90;99.90
16066;DHT22;8137;48.952;8.970;2023-11-21T11:30:15;11.70;99.90
16066;DHT22;8137;48.952;8.970;2023-11-21T11:33:03;12.20;99.90
16066;DHT22;8137;48.952;8.970;2023-11-21T11:38:33;12.00;99.90
16066;DHT22;8137;48.952;8.970;2023-11-21T11:41:04;11.80;99.90
16066;DHT22;8137;48.952;8.970;2023-11-21T11:43:31;11.60;99.90
16066;DHT22;8137;48.952;8.970;2023-11-21T11:46:10;11.30;99.90
16066;DHT22;8137;48.952;8.970;2023-11-21T11:48:40;11.10;99.90
16066;DHT22;8137;48.952;8.970;2023-11-21T11:51:13;11.00;99.90
16066;DHT22;8137;48.952;8.970;2023-11-21T11:53:47;10.90;99.90
16066;DHT22;8137;48.952;8.970;2023-11-21T11:58:48;10.70;99.90
16066;DHT22;8137;48.952;8.970;2023-11-21T12:01:18;10.70;99.90
16066;DHT22;8137;48.952;8.970;2023-11-21T12:03:44;10.70;99.90
16066;DHT22;8137;48.952;8.970;2023-11-21T12:06:10;10.70;99.90
16066;DHT22;8137;48.952;8.970;2023-11-21T12:08:37;10.80;99.90
16066;DHT22;8137;48.952;8.970;2023-11-21T12:11:04;10.90;99.90
16066;DHT22;8137;48.952;8.970;2023-11-21T12:13:30;11.00;99.90
16066;DHT22;8137;48.952;8.970;2023-11-21T12:15:56;11.00;99.90
16066;DHT22;8137;48.952;8.970;2023-11-21T12:18:21;10.90;99.90
16066;DHT22;8137;48.952;8.970;2023-11-21T12:20:47;10.90;99.90
16066;DHT22;8137;48.952;8.970;2023-11-21T12:23:15;10.90;99.90
16066;DHT22;8137;48.952;8.970;2023-11-21T12:25:42;10.80;99.90
16066;DHT22;8137;48.952;8.970;2023-11-21T12:28:08;10.70;99.90
16066;DHT22;8137;48.952;8.970;2023-11-21T12:30:35;10.70;99.90
16066;DHT22;8137;48.952;8.970;2023-11-21T12:33:02;10.70;99.90
16066;DHT22;8137;48.952;8.970;2023-11-21T12:35:33;10.60;99.90
16066;DHT22;8137;48.952;8.970;2023-11-21T12:38:00;10.60;99.90
16066;DHT22;8137;48.952;8.970;2023-11-21T12:40:28;10.50;99.90
16066;DHT22;8137;48.952;8.970;2023-11-21T12:42:55;10.50;99.90
16066;DHT22;8137;48.952;8.970;2023-11-21T12:45:23;10.50;99.90
16066;DHT22;8137;48.952;8.970;2023-11-21T12:48:01;10.60;99.90
16066;DHT22;8137;48.952;8.970;2023-11-21T12:50:35;10.60;99.90
16066;DHT22;8137;48.952;8.970;2023-11-21T12:53:05;10.60;99.90
16066;DHT22;8137;48.952;8.970;2023-11-21T12:55:34;10.60;99.90
16066;DHT22;8137;48.952;8.970;2023-11-21T12:58:07;10.60;99.90
16066;DHT22;8137;48.952;8.970;2023-11-21T13:00:44;10.70;99.90
16066;DHT22;8137;48.952;8.970;2023-11-21T13:03:12;10.70;99.90
16066;DHT22;8137;48.952;8.970;2023-11-21T13:05:41;10.70;99.90
16066;DHT22;8137;48.952;8.970;2023-11-21T13:08:11;10.70;99.90
16066;DHT22;8137;48.952;8.970;2023-11-21T13:10:39;10.70;99.90
16066;DHT22;8137;48.952;8.970;2023-11-21T13:13:09;10.80;99.90
16066;DHT22;8137;48.952;8.970;2023-11-21T13:15:39;10.80;99.90
16066;DHT22;8137;48.952;8.970;2023-11-21T13:18:06;10.80;99.90
16066;DHT22;8137;48.952;8.970;2023-11-21T13:20:32;10.80;99.90
16066;DHT22;8137;48.952;8.970;2023-11-21T13:22:58;10.80;99.90
16066;DHT22;8137;48.952;8.970;2023-11-21T13:25:28;10.90;99.90
16066;DHT22;8137;48.952;8.970;2023-11-21T13:27:57;10.90;99.90
16066;DHT22;8137;48.952;8.970;2023-11-21T13:30:24;10.90;99.90
16066;DHT22;8137;48.952;8.970;2023-11-21T13:32:53;11.00;99.90
16066;DHT22;8137;48.952;8.970;2023-11-21T13:35:23;11.00;99.90
16066;DHT22;8137;48.952;8.970;2023-11-21T13:37:57;11.00;99.90
16066;DHT22;8137;48.952;8.970;2023-11-21T13:40:26;10.80;99.90
16066;DHT22;8137;48.952;8.970;2023-11-21T13:42:55;10.70;99.90
16066;DHT22;8137;48.952;8.970;2023-11-21T13:45:27;10.60;99.90
16066;DHT22;8137;48.952;8.970;2023-11-21T13:47:53;10.50;99.90
16066;DHT22;8137;48.952;8.970;2023-11-21T13:50:23;10.40;99.90
16066;DHT22;8137;48.952;8.970;2023-11-21T13:52:54;10.20;99.90
16066;DHT22;8137;48.952;8.970;2023-11-21T13:55:20;10.10;99.90
16066;DHT22;8137;48.952;8.970;2023-11-21T13:57:47;9.90;99.90
16066;DHT22;8137;48.952;8.970;2023-11-21T14:00:17;9.80;99.90
16066;DHT22;8137;48.952;8.970;2023-11-21T14:03:01;9.80;99.90
16066;DHT22;8137;48.952;8.970;2023-11-21T14:05:31;9.70;99.90
16066;DHT22;8137;48.952;8.970;2023-11-21T14:07:59;9.60;99.90
16066;DHT22;8137;48.952;8.970;2023-11-21T14:10:30;9.60;99.90
16066;DHT22;8137;48.952;8.970;2023-11-21T14:13:11;9.50;99.90
16066;DHT22;8137;48.952;8.970;2023-11-21T14:15:39;9.50;99.90
16066;DHT22;8137;48.952;8.970;2023-11-21T14:18:08;9.40;99.90
16066;DHT22;8137;48.952;8.970;2023-11-21T14:20:36;9.40;99.90
16066;DHT22;8137;48.952;8.970;2023-11-21T14:23:03;9.40;99.90
16066;DHT22;8137;48.952;8.970;2023-11-21T14:25:31;9.40;99.90
16066;DHT22;8137;48.952;8.970;2023-11-21T14:27:57;9.40;99.90
16066;DHT22;8137;48.952;8.970;2023-11-21T14:30:23;9.40;99.90
16066;DHT22;8137;48.952;8.970;2023-11-21T14:32:48;9.40;99.90
16066;DHT22;8137;48.952;8.970;2023-11-21T14:35:15;9.40;99.90
16066;DHT22;8137;48.952;8.970;2023-11-21T14:37:42;9.40;99.90
16066;DHT22;8137;48.952;8.970;2023-11-21T14:40:09;9.40;99.90
16066;DHT22;8137;48.952;8.970;2023-11-21T14:42:34;9.40;99.90
16066;DHT22;8137;48.952;8.970;2023-11-21T14:45:03;9.40;99.90
16066;DHT22;8137;48.952;8.970;2023-11-21T14:47:32;9.40;99.90
16066;DHT22;8137;48.952;8.970;2023-11-21T14:50:02;9.30;99.90
16066;DHT22;8137;48.952;8.970;2023-11-21T14:52:48;9.30;99.90
16066;DHT22;8137;48.952;8.970;2023-11-21T14:55:24;9.30;99.90
16066;DHT22;8137;48.952;8.970;2023-11-21T14:58:18;9.30;99.90
16066;DHT22;8137;48.952;8.970;2023-11-21T15:00:57;9.20;99.90
16066;DHT22;8137;48.952;8.970;2023-11-21T15:03:27;9.20;99.90
16066;DHT22;8137;48.952;8.970;2023-11-21T15:06:03;9.20;99.90
16066;DHT22;8137;48.952;8.970;2023-11-21T15:08:51;9.20;99.90
16066;DHT22;8137;48.952;8.970;2023-11-21T15:11:21;9.20;99.90
16066;DHT22;8137;48.952;8.970;2023-11-21T15:13:53;9.10;99.90
16066;DHT22;8137;48.952;8.970;2023-11-21T15:16:19;9.10;99.90
16066;DHT22;8137;48.952;8.970;2023-11-21T15:18:45;9.00;99.90
16066;DHT22;8137;48.952;8.970;2023-11-21T15:21:10;8.90;99.90
16066;DHT22;8137;48.952;8.970;2023-11-21T15:23:38;8.90;99.90
16066;DHT22;8137;48.952;8.970;2023-11-21T15:26:04;8.90;99.90
16066;DHT22;8137;48.952;8.970;2023-11-21T15:28:30;8.80;99.90
16066;DHT22;8137;48.952;8.970;2023-11-21T15:30:58;8.70;99.90
16066;DHT22;8137;48.952;8.970;2023-11-21T15:33:23;8.60;99.90
16066;DHT22;8137;48.952;8.970;2023-11-21T15:35:49;8.40;99.90
16066;DHT22;8137;48.952;8.970;2023-11-21T15:38:14;8.30;99.90
16066;DHT22;8137;48.952;8.970;2023-11-21T15:40:40;8.30;99.90
16066;DHT22;8137;48.952;8.970;2023-11-21T15:43:06;8.30;99.90
16066;DHT22;8137;48.952;8.970;2023-11-21T15:45:32;8.30;99.90
16066;DHT22;8137;48.952;8.970;2023-11-21T15:47:58;8.20;99.90
16066;DHT22;8137;48.952;8.970;2023-11-21T15:50:25;8.10;99.90
16066;DHT22;8137;48.952;8.970;2023-11-21T15:52:51;8.10;99.90
16066;DHT22;8137;48.952;8.970;2023-11-21T15:55:17;8.00;99.90
16066;DHT22;8137;48.952;8.970;2023-11-21T15:57:43;7.90;99.90
16066;DHT22;8137;48.952;8.970;2023-11-21T16:00:09;7.90;99.90
16066;DHT22;8137;48.952;8.970;2023-11-21T16:02:42;7.90;99.90
16066;DHT22;8137;48.952;8.970;2023-11-21T16:05:09;7.80;99.90
16066;DHT22;8137;48.952;8.970;2023-11-21T16:07:35;7.70;99.90
16066;DHT22;8137;48.952;8.970;2023-11-21T16:10:02;7.70;99.90
16066;DHT22;8137;48.952;8.970;2023-11-21T16:12:28;7.60;99.90